Aérodrome :
LOGIN :

S'inscrire | Disclaimer

   EN    FR    IT 

 










Légende :    VFR   VFR Marginal   IFR   IFR Intensif   IFR Très Intensif
Visi : 
Plafond : 
>= 8 km
>= 3000ft
5 à 8 km
1000 à 3000 ft
1500m à 5 km
500 à 1000 ft
800 à 1500m
200 à 500 ft
< 800m
< 200 ft
Symboles :   Orages  Brouillard  Fortes neiges  Fortes précipitations  Vent > 20 kt
SIGMETs :   Divers  Orages  Givrage  Turbulence  Onde Orograph.  Cendres Volcan.






- Altitude de l'aérodrome : 961 ft
- Code IATA : VIN


UKWW - Gavryshivka

DERNIER METAR :
  • 211100Z VRB01MPS CAVOK 21/04 Q1023 R13/0///65 NOSIG

METARs EXPIRÉS :
  • 211030Z 16002MPS 070V230 CAVOK 21/05 Q1023 R13/0///65 NOSIG
  • 211000Z 17002MPS 110V240 CAVOK 21/04 Q1023 R13/0///65 NOSIG
  • 210930Z 15003MPS 120V210 CAVOK 21/05 Q1023 R13/0///65 NOSIG
  • 210900Z 17003MPS 130V240 CAVOK 20/05 Q1023 R13/0///65 NOSIG
  • 210830Z 17004MPS 140V230 CAVOK 19/06 Q1024 R13/0///65 NOSIG

TAF TAF UKWW
Valide du 21 à 09h jusqu'au 21 à 18h UTC


210801Z 2109/2118 VRB01MPS 9999 SCT040
TEMPO 2109/2114 16005G10MPS



MET'MAP, la Météo Aéronautique d'un coup d'oeil ! - Copyright ORBIFLY Décembre 2007 - Disclaimer

ORBIFLY MET'MAP TEAM :

Programmation & Développement : Alexandra Zaïnal
Sur une idée originale de : Baudouin d'Aumeries
Assistance à la programmation : Marc-Olivier Méhu
Soutien technique & logistique : Manuel Goepfert

Contact : metmap@orbifly.com




SOURCES & CREDITS :

   NOAA